Terminal Aerodrome Forecast
Issued by NWS

Home | Current Version | Previous Version | Text Only | Print | Product List | Glossary Off
Versions: 1 2 3 4 5 6 7 8 9 10 11 12 13 14 15 16 17 18 19 20

000
FTUS43 KMPX 290300 AAA
TAFRNH
TAF AMD
KRNH 290300Z 2903/2924 30014G22KT P6SM VCSH SCT025 BKN050
     FM290500 30014G20KT P6SM SCT015 BKN020 OVC040
     FM290800 30009KT P6SM OVC018
     FM291600 28008KT P6SM BKN025 OVC040
     FM292000 27006KT P6SM SCT040 SCT250=

USA.gov is the U.S. government's official web portal to all federal, state and local government web resources and services.